Time;durP1;ratioP1;P1;durP2;ratioP2;P2;SDS_P1;SDS_P2;PMS_P1;PMS_P2;Temp;Humidity;BMP_temperature;BMP_pressure;BME280_temperature;BME280_humidity;BME280_pressure;Samples;Min_cycle;Max_cycle;Signal;HPM_P1;HPM_P2
2021/08/05 00:01:15;;;;;;;5.50;4.00;;;19.90;93.90;;;;;;5113969;27;20472;-65
2021/08/05 00:03:42;;;;;;;5.23;4.73;;;19.80;93.90;;;;;;5102356;28;20465;-65
2021/08/05 00:06:09;;;;;;;7.20;6.50;;;19.80;94.00;;;;;;5113018;27;20469;-65
2021/08/05 00:08:36;;;;;;;4.30;3.43;;;19.70;94.10;;;;;;5113183;27;20479;-65
2021/08/05 00:11:03;;;;;;;3.87;3.57;;;19.70;94.00;;;;;;5112082;27;20460;-65
2021/08/05 00:13:31;;;;;;;4.37;3.97;;;19.70;94.00;;;;;;5112970;28;20460;-65
2021/08/05 00:15:59;;;;;;;7.00;5.03;;;19.70;94.00;;;;;;5107783;28;20458;-65
2021/08/05 00:18:26;;;;;;;4.40;3.97;;;19.70;94.00;;;;;;5109561;27;20488;-65
2021/08/05 00:20:53;;;;;;;6.37;5.40;;;19.70;94.00;;;;;;5100557;28;20808;-64
2021/08/05 00:23:20;;;;;;;3.67;3.37;;;19.60;94.00;;;;;;5113188;28;20483;-65
2021/08/05 00:25:47;;;;;;;5.57;4.97;;;19.60;94.10;;;;;;5099779;28;20949;-65
2021/08/05 00:28:13;;;;;;;6.40;5.77;;;19.50;94.20;;;;;;5099879;28;20485;-65
2021/08/05 00:30:40;;;;;;;6.57;5.93;;;19.50;94.40;;;;;;5105681;28;20480;-65
2021/08/05 00:33:09;;;;;;;7.40;6.20;;;19.40;94.40;;;;;;5094358;28;20978;-65
2021/08/05 00:35:36;;;;;;;6.20;5.60;;;19.40;94.50;;;;;;5112816;27;20461;-65
2021/08/05 00:38:03;;;;;;;6.50;5.90;;;19.40;94.50;;;;;;5111839;28;20464;-65
2021/08/05 00:40:30;;;;;;;8.10;7.30;;;19.40;94.60;;;;;;5100183;27;20486;-65
2021/08/05 00:42:57;;;;;;;15.80;13.07;;;19.40;94.60;;;;;;5112287;27;20802;-65
2021/08/05 00:45:24;;;;;;;14.30;10.20;;;19.40;94.80;;;;;;5112465;27;20468;-65
2021/08/05 00:47:50;;;;;;;6.40;5.80;;;19.40;94.80;;;;;;5111073;27;20469;-65
2021/08/05 00:50:19;;;;;;;15.40;13.80;;;19.40;94.70;;;;;;5112035;27;20493;-64
2021/08/05 00:52:46;;;;;;;15.20;11.30;;;19.40;94.80;;;;;;5111874;27;20859;-64
2021/08/05 00:55:13;;;;;;;5.37;4.73;;;19.40;94.90;;;;;;5112288;27;20456;-64
2021/08/05 00:57:40;;;;;;;10.20;8.57;;;19.40;94.90;;;;;;5111930;27;20471;-65
2021/08/05 01:00:11;;;;;;;6.03;4.30;;;19.40;94.90;;;;;;5112149;27;20786;-65
2021/08/05 01:02:44;;;;;;;9.93;7.13;;;19.40;94.90;;;;;;5112786;27;20488;-65
2021/08/05 01:05:12;;;;;;;8.83;7.30;;;19.40;95.00;;;;;;5113513;27;20460;-65
2021/08/05 01:07:45;;;;;;;10.67;9.57;;;19.40;95.00;;;;;;5112802;27;20843;-65
2021/08/05 01:10:15;;;;;;;4.80;4.40;;;19.40;95.10;;;;;;5113200;27;20783;-65
2021/08/05 01:12:47;;;;;;;7.90;7.20;;;19.30;95.00;;;;;;5112828;27;20464;-64
2021/08/05 01:15:21;;;;;;;4.30;3.90;;;19.40;95.10;;;;;;5114476;27;20493;-64
2021/08/05 01:17:49;;;;;;;3.97;3.20;;;19.40;95.10;;;;;;5119686;27;20472;-64
2021/08/05 01:20:19;;;;;;;5.00;4.60;;;19.30;95.00;;;;;;5119920;27;20459;-64
2021/08/05 01:22:56;;;;;;;8.57;6.83;;;19.30;95.10;;;;;;5119669;27;20456;-64
2021/08/05 01:25:30;;;;;;;4.00;3.57;;;19.30;95.10;;;;;;5119941;27;20484;-64
2021/08/05 01:28:00;;;;;;;6.43;4.73;;;19.30;95.20;;;;;;5119511;27;20525;-64
2021/08/05 01:30:28;;;;;;;7.57;5.20;;;19.30;95.20;;;;;;5119765;27;20475;-64
2021/08/05 01:32:57;;;;;;;3.77;3.47;;;19.20;95.20;;;;;;5119561;27;20475;-65
2021/08/05 01:35:26;;;;;;;4.80;4.10;;;19.20;95.30;;;;;;5119741;27;20491;-65
2021/08/05 01:37:54;;;;;;;8.90;3.67;;;19.20;95.30;;;;;;5119424;27;20929;-65
2021/08/05 01:40:22;;;;;;;4.40;4.00;;;19.20;95.30;;;;;;5119886;27;20472;-65
2021/08/05 01:42:49;;;;;;;4.00;3.60;;;19.20;95.40;;;;;;5119234;27;20460;-65
2021/08/05 01:45:18;;;;;;;5.10;3.20;;;19.20;95.40;;;;;;5119510;27;20466;-64
2021/08/05 01:47:46;;;;;;;3.13;2.93;;;19.10;95.50;;;;;;5119207;27;20460;-64
2021/08/05 01:50:14;;;;;;;5.30;4.80;;;19.00;95.50;;;;;;5119650;27;20463;-65
2021/08/05 01:52:42;;;;;;;4.10;3.70;;;19.00;95.80;;;;;;5119091;27;20459;-64
2021/08/05 01:55:11;;;;;;;3.43;3.13;;;19.00;95.80;;;;;;5119710;27;20456;-65
2021/08/05 01:57:39;;;;;;;3.60;3.27;;;19.00;95.90;;;;;;5119198;27;20467;-64
2021/08/05 02:00:07;;;;;;;3.90;3.50;;;18.90;95.80;;;;;;5119711;27;20467;-64
2021/08/05 02:02:37;;;;;;;3.60;3.03;;;19.00;95.90;;;;;;5119657;27;20464;-64
2021/08/05 02:05:06;;;;;;;4.17;3.60;;;19.00;95.90;;;;;;5119367;27;20940;-65
2021/08/05 02:07:38;;;;;;;6.60;4.47;;;19.00;95.90;;;;;;5119423;27;20464;-65
2021/08/05 02:10:09;;;;;;;2.87;2.50;;;19.00;96.00;;;;;;5119377;27;20497;-64
2021/08/05 02:12:41;;;;;;;3.30;3.00;;;19.00;95.90;;;;;;5119606;27;20473;-64
2021/08/05 02:15:08;;;;;;;3.20;3.00;;;19.00;96.00;;;;;;5119053;27;21755;-64
2021/08/05 02:17:39;;;;;;;3.53;3.23;;;19.00;96.00;;;;;;5119384;27;20468;-65
2021/08/05 02:20:08;;;;;;;4.13;3.00;;;19.00;96.00;;;;;;5119066;27;20455;-65
2021/08/05 02:22:39;;;;;;;4.90;3.30;;;19.00;96.00;;;;;;5119390;27;20463;-65
2021/08/05 02:25:08;;;;;;;3.20;2.90;;;18.90;96.10;;;;;;5118838;27;20467;-65
2021/08/05 02:27:35;;;;;;;3.33;3.03;;;18.90;96.10;;;;;;5116164;27;20474;-65
2021/08/05 02:30:03;;;;;;;3.20;2.90;;;18.90;96.20;;;;;;5115532;27;20464;-65
2021/08/05 02:32:30;;;;;;;3.50;3.17;;;18.90;96.20;;;;;;5116102;27;21032;-65
2021/08/05 02:35:03;;;;;;;3.13;2.53;;;18.80;96.30;;;;;;5115583;27;20923;-65
2021/08/05 02:37:30;;;;;;;3.00;2.67;;;18.80;96.30;;;;;;5115929;27;20460;-65
2021/08/05 02:39:57;;;;;;;3.40;3.10;;;18.80;96.40;;;;;;5115623;27;20953;-65
2021/08/05 02:42:24;;;;;;;6.53;3.80;;;18.80;96.50;;;;;;5115878;27;20472;-65
2021/08/05 02:44:52;;;;;;;3.03;2.83;;;18.80;96.50;;;;;;5115247;27;20472;-65
2021/08/05 02:47:21;;;;;;;4.10;2.90;;;18.80;96.60;;;;;;5115771;27;20463;-65
2021/08/05 02:49:48;;;;;;;3.70;3.33;;;18.80;96.60;;;;;;5115193;27;20476;-65
2021/08/05 02:52:17;;;;;;;3.27;2.97;;;18.80;96.60;;;;;;5115761;27;20462;-65
2021/08/05 02:54:44;;;;;;;3.30;3.10;;;18.80;96.70;;;;;;5115544;27;20472;-65
2021/08/05 02:57:11;;;;;;;5.20;2.80;;;18.80;96.70;;;;;;5115359;27;20470;-65
2021/08/05 02:59:39;;;;;;;3.50;2.67;;;18.70;96.70;;;;;;5115529;27;20479;-65
2021/08/05 03:02:06;;;;;;;5.47;3.37;;;18.70;96.70;;;;;;5114983;27;20464;-65
2021/08/05 03:04:33;;;;;;;2.63;2.40;;;18.70;96.80;;;;;;5115785;27;20470;-65
2021/08/05 03:07:01;;;;;;;3.00;2.80;;;18.70;96.80;;;;;;5115046;27;20464;-65
2021/08/05 03:09:30;;;;;;;3.17;2.97;;;18.70;96.90;;;;;;5115256;27;20477;-65
2021/08/05 03:11:57;;;;;;;5.30;2.93;;;18.70;96.90;;;;;;5115006;27;20565;-65
2021/08/05 03:14:24;;;;;;;3.57;3.27;;;18.70;96.90;;;;;;5115191;27;20474;-65
2021/08/05 03:16:51;;;;;;;2.77;2.57;;;18.70;97.00;;;;;;5114904;27;20468;-65
2021/08/05 03:19:18;;;;;;;2.73;2.50;;;18.70;97.00;;;;;;5115188;27;20472;-65
2021/08/05 03:21:45;;;;;;;3.10;2.83;;;18.70;97.00;;;;;;5115355;27;20922;-65
2021/08/05 03:24:12;;;;;;;3.10;2.80;;;18.70;97.10;;;;;;5114819;27;20463;-65
2021/08/05 03:26:40;;;;;;;3.07;2.87;;;18.70;97.10;;;;;;5115141;27;20464;-65
2021/08/05 03:29:07;;;;;;;2.97;2.77;;;18.60;97.10;;;;;;5114363;27;20836;-65
2021/08/05 03:31:34;;;;;;;3.33;3.03;;;18.60;97.20;;;;;;5115354;27;20494;-65
2021/08/05 03:34:01;;;;;;;3.17;2.87;;;18.60;97.20;;;;;;5114463;27;20477;-65
2021/08/05 03:36:28;;;;;;;5.83;3.20;;;18.60;97.20;;;;;;5114860;27;20465;-65
2021/08/05 03:38:55;;;;;;;3.23;2.93;;;18.60;97.30;;;;;;5114032;27;20475;-65
2021/08/05 03:41:22;;;;;;;3.00;2.80;;;18.60;97.40;;;;;;5114722;27;20486;-66
2021/08/05 03:43:50;;;;;;;5.03;3.50;;;18.60;97.40;;;;;;5114646;27;20969;-65
2021/08/05 03:46:17;;;;;;;3.50;2.87;;;18.60;97.30;;;;;;5114315;27;20464;-64
2021/08/05 03:48:44;;;;;;;3.17;2.97;;;18.60;97.40;;;;;;5114377;27;20465;-64
2021/08/05 03:51:11;;;;;;;6.73;3.10;;;18.60;97.40;;;;;;5114130;27;20471;-64
2021/08/05 03:53:38;;;;;;;3.37;3.10;;;18.60;97.40;;;;;;5114490;27;20468;-64
2021/08/05 03:56:05;;;;;;;3.17;2.97;;;18.50;97.30;;;;;;5114089;27;20981;-65
2021/08/05 03:58:32;;;;;;;3.47;3.17;;;18.50;97.40;;;;;;5114253;27;20471;-65
2021/08/05 04:01:00;;;;;;;4.10;3.70;;;18.60;97.40;;;;;;5114110;27;20464;-65
2021/08/05 04:03:27;;;;;;;6.27;3.60;;;18.50;97.40;;;;;;5114317;27;20463;-65
2021/08/05 04:05:54;;;;;;;3.50;3.20;;;18.50;97.50;;;;;;5113623;27;20464;-64
2021/08/05 04:08:21;;;;;;;3.60;3.00;;;18.50;97.50;;;;;;5114149;27;20466;-65
2021/08/05 04:10:48;;;;;;;2.93;2.73;;;18.50;97.50;;;;;;5114019;27;20475;-65
2021/08/05 04:13:17;;;;;;;3.60;3.07;;;18.50;97.60;;;;;;5113867;27;20474;-64
2021/08/05 04:15:44;;;;;;;3.43;3.13;;;18.40;97.60;;;;;;5113990;27;20527;-64
2021/08/05 04:18:12;;;;;;;3.60;3.30;;;18.50;97.60;;;;;;5113456;27;20472;-64
2021/08/05 04:20:39;;;;;;;3.90;3.30;;;18.40;97.50;;;;;;5114245;27;20468;-65
2021/08/05 04:23:06;;;;;;;3.37;3.07;;;18.40;97.60;;;;;;5113545;27;20475;-64
2021/08/05 04:25:33;;;;;;;3.70;3.20;;;18.40;97.60;;;;;;5113794;27;20464;-65
2021/08/05 04:28:00;;;;;;;3.30;3.10;;;18.40;97.50;;;;;;5113451;27;20474;-64
2021/08/05 04:30:27;;;;;;;3.30;3.03;;;18.40;97.50;;;;;;5113719;27;20552;-64
2021/08/05 04:32:54;;;;;;;2.90;2.70;;;18.40;97.50;;;;;;5113758;27;20468;-65
2021/08/05 04:35:22;;;;;;;2.77;2.57;;;18.40;97.50;;;;;;5113561;27;20452;-64
2021/08/05 04:37:51;;;;;;;3.50;3.10;;;18.40;97.60;;;;;;5113533;27;20478;-64
2021/08/05 04:40:18;;;;;;;2.70;2.50;;;18.40;97.70;;;;;;5112964;27;20456;-64
2021/08/05 04:42:45;;;;;;;5.33;3.40;;;18.40;97.70;;;;;;5113661;27;20463;-65
2021/08/05 04:45:13;;;;;;;3.63;2.90;;;18.40;97.70;;;;;;5113037;27;20536;-64
2021/08/05 04:47:57;;;;;;;3.03;2.80;;;18.40;97.70;;;;;;5113245;27;20965;-64
2021/08/05 04:50:30;;;;;;;3.43;3.13;;;18.50;97.70;;;;;;5112626;27;20475;-64
2021/08/05 04:52:57;;;;;;;3.00;2.63;;;18.40;97.70;;;;;;5113574;27;20474;-65
2021/08/05 04:55:24;;;;;;;3.53;3.23;;;18.50;97.70;;;;;;5112801;27;21002;-66
2021/08/05 04:57:53;;;;;;;3.60;3.30;;;18.50;97.70;;;;;;5113275;27;20468;-65
2021/08/05 05:00:24;;;;;;;5.20;3.40;;;18.60;97.70;;;;;;5112947;27;20561;-65
2021/08/05 05:02:52;;;;;;;3.40;3.03;;;18.60;97.70;;;;;;5113356;27;21153;-65
2021/08/05 05:05:19;;;;;;;5.33;3.53;;;18.60;97.60;;;;;;5112907;27;20467;-65
2021/08/05 05:07:48;;;;;;;5.27;3.73;;;18.60;97.60;;;;;;5113173;27;20474;-65
2021/08/05 05:10:15;;;;;;;3.63;3.37;;;18.60;97.60;;;;;;5112680;27;20464;-65
2021/08/05 05:12:43;;;;;;;5.53;3.00;;;18.60;97.60;;;;;;5113202;27;20457;-65
2021/08/05 05:15:12;;;;;;;4.03;2.50;;;18.60;97.60;;;;;;5112732;27;20806;-65
2021/08/05 05:17:41;;;;;;;6.70;3.53;;;18.70;97.60;;;;;;5113198;27;20471;-65
2021/08/05 05:20:09;;;;;;;3.60;3.30;;;18.70;97.60;;;;;;5112682;27;20461;-65
2021/08/05 05:22:37;;;;;;;3.20;2.90;;;18.70;97.60;;;;;;5113107;27;20461;-65
2021/08/05 05:25:08;;;;;;;5.50;3.37;;;18.80;97.60;;;;;;5113024;27;20463;-65
2021/08/05 05:27:35;;;;;;;3.30;3.10;;;18.80;97.60;;;;;;5113028;27;20464;-65
2021/08/05 05:30:02;;;;;;;5.20;3.20;;;18.90;97.60;;;;;;5113028;27;20814;-65
2021/08/05 05:32:31;;;;;;;5.03;3.97;;;18.90;97.60;;;;;;5113102;27;20946;-65
2021/08/05 05:34:58;;;;;;;4.03;3.70;;;19.00;97.70;;;;;;5112921;27;20546;-65
2021/08/05 05:37:26;;;;;;;4.90;4.27;;;19.00;97.70;;;;;;5112717;27;20452;-65
2021/08/05 05:39:54;;;;;;;3.77;3.47;;;19.00;97.60;;;;;;5112908;27;20814;-65
2021/08/05 05:42:23;;;;;;;3.87;3.53;;;19.10;97.60;;;;;;5112416;27;20460;-65
2021/08/05 05:44:51;;;;;;;4.30;3.90;;;19.10;97.60;;;;;;5112998;27;20472;-65
2021/08/05 05:47:19;;;;;;;4.07;3.67;;;19.10;97.60;;;;;;5112574;27;20810;-65
2021/08/05 05:49:47;;;;;;;5.60;4.60;;;19.20;97.60;;;;;;5112605;27;20475;-65
2021/08/05 05:52:15;;;;;;;4.33;3.90;;;19.20;97.60;;;;;;5112391;27;20465;-65
2021/08/05 05:54:42;;;;;;;4.00;3.70;;;19.30;97.60;;;;;;5112628;27;20472;-65
2021/08/05 05:57:09;;;;;;;3.60;3.30;;;19.30;97.60;;;;;;5112266;27;20464;-65
2021/08/05 05:59:39;;;;;;;4.07;3.67;;;19.30;97.60;;;;;;5112551;27;20568;-64
2021/08/05 06:02:06;;;;;;;4.20;3.80;;;19.40;97.70;;;;;;5114285;27;20783;-65
2021/08/05 06:04:33;;;;;;;5.70;4.03;;;19.40;97.60;;;;;;5116367;27;20464;-65
2021/08/05 06:07:00;;;;;;;4.33;4.00;;;19.50;97.70;;;;;;5116645;27;20471;-64
2021/08/05 06:09:27;;;;;;;4.27;3.77;;;19.60;97.70;;;;;;5116079;27;20460;-64
2021/08/05 06:11:54;;;;;;;6.10;3.90;;;19.70;97.70;;;;;;5116412;27;20459;-64
2021/08/05 06:14:21;;;;;;;6.97;4.17;;;19.70;97.60;;;;;;5115869;27;20472;-64
2021/08/05 06:16:49;;;;;;;5.30;4.20;;;19.80;97.60;;;;;;5116463;27;20810;-65
2021/08/05 06:19:16;;;;;;;5.17;4.27;;;19.90;97.60;;;;;;5115662;27;20962;-65
2021/08/05 06:21:43;;;;;;;4.10;3.80;;;20.00;97.90;;;;;;5116511;27;20487;-65
2021/08/05 06:24:12;;;;;;;4.40;4.00;;;20.10;97.60;;;;;;5115816;27;20479;-65
2021/08/05 06:26:40;;;;;;;5.67;5.10;;;20.10;97.40;;;;;;5116273;27;20460;-65
2021/08/05 06:29:08;;;;;;;4.83;4.40;;;20.20;97.40;;;;;;5115724;27;20501;-64
2021/08/05 06:31:35;;;;;;;6.17;4.77;;;20.30;97.40;;;;;;5116076;27;20452;-65
2021/08/05 06:34:04;;;;;;;4.67;4.27;;;20.30;97.40;;;;;;5116136;27;20468;-65
2021/08/05 06:36:31;;;;;;;4.60;4.30;;;20.40;97.30;;;;;;5115611;27;20467;-66
2021/08/05 06:38:59;;;;;;;6.00;4.90;;;20.50;97.30;;;;;;5115812;27;20955;-64
2021/08/05 06:41:26;;;;;;;5.40;4.90;;;20.60;97.20;;;;;;5115510;27;20471;-65
2021/08/05 06:43:53;;;;;;;4.83;4.40;;;20.60;97.10;;;;;;5115945;27;20465;-65
2021/08/05 06:46:20;;;;;;;5.03;4.50;;;20.70;97.20;;;;;;5115447;27;20468;-64
2021/08/05 06:48:47;;;;;;;4.63;4.33;;;20.80;97.10;;;;;;5115672;27;20468;-65
2021/08/05 06:51:15;;;;;;;6.80;4.90;;;20.80;97.10;;;;;;5115432;27;20464;-64
2021/08/05 06:53:42;;;;;;;7.00;4.83;;;20.90;97.00;;;;;;5115711;27;20457;-64
2021/08/05 06:56:09;;;;;;;4.83;3.93;;;21.00;96.90;;;;;;5115131;27;20461;-65
2021/08/05 06:58:36;;;;;;;4.67;4.20;;;21.10;96.90;;;;;;5115758;27;20795;-64
2021/08/05 07:01:03;;;;;;;7.93;5.50;;;21.20;96.80;;;;;;5115543;27;20479;-64
2021/08/05 07:03:33;;;;;;;4.37;3.97;;;21.30;96.70;;;;;;5115148;27;20468;-65
2021/08/05 07:06:00;;;;;;;5.50;5.10;;;21.40;96.70;;;;;;5115575;27;20809;-65
2021/08/05 07:08:28;;;;;;;4.80;4.47;;;21.50;96.60;;;;;;5114831;27;20468;-65
2021/08/05 07:10:55;;;;;;;4.43;4.13;;;21.60;96.50;;;;;;5115692;27;20461;-65
2021/08/05 07:13:22;;;;;;;5.00;4.53;;;21.70;96.40;;;;;;5114220;27;20491;-65
2021/08/05 07:15:49;;;;;;;3.70;3.40;;;21.80;96.30;;;;;;5115358;27;20461;-65
2021/08/05 07:18:16;;;;;;;5.03;4.43;;;21.90;96.20;;;;;;5114985;27;20499;-66
2021/08/05 07:20:43;;;;;;;5.93;4.67;;;22.00;96.10;;;;;;5115190;27;20467;-66
2021/08/05 07:23:10;;;;;;;5.50;4.63;;;22.10;95.90;;;;;;5114756;27;20472;-64
2021/08/05 07:25:38;;;;;;;5.40;4.80;;;22.20;95.80;;;;;;5115175;27;20957;-65
2021/08/05 07:28:05;;;;;;;6.90;6.40;;;22.30;95.70;;;;;;5114959;27;20480;-65
2021/08/05 07:30:32;;;;;;;9.40;8.60;;;22.40;95.40;;;;;;5114401;27;20456;-65
2021/08/05 07:32:59;;;;;;;8.40;6.90;;;22.50;95.30;;;;;;5115078;27;20875;-64
2021/08/05 07:35:27;;;;;;;8.40;7.10;;;22.60;95.10;;;;;;5114404;27;20526;-65
2021/08/05 07:37:54;;;;;;;9.20;7.30;;;22.80;95.00;;;;;;5114804;27;20469;-64
2021/08/05 07:40:21;;;;;;;6.80;6.10;;;22.90;94.70;;;;;;5114501;27;20468;-65
2021/08/05 07:42:49;;;;;;;6.33;4.80;;;22.90;94.40;;;;;;5114944;27;20488;-65
2021/08/05 07:45:16;;;;;;;6.30;4.80;;;23.00;94.50;;;;;;5114163;27;20510;-65
2021/08/05 07:47:43;;;;;;;8.50;7.63;;;23.20;94.50;;;;;;5114525;27;20469;-65
2021/08/05 07:50:14;;;;;;;14.10;12.60;;;23.30;94.20;;;;;;5114700;27;20476;-65
2021/08/05 07:52:41;;;;;;;7.00;6.10;;;23.40;94.00;;;;;;5114220;27;21253;-65
2021/08/05 07:55:09;;;;;;;5.80;5.30;;;23.50;93.90;;;;;;5114535;27;20473;-65
2021/08/05 07:57:37;;;;;;;6.03;4.57;;;23.50;93.90;;;;;;5113912;27;20473;-66
2021/08/05 08:00:07;;;;;;;5.73;5.00;;;23.50;93.90;;;;;;5114391;27;20452;-65
2021/08/05 08:02:34;;;;;;;5.40;4.90;;;23.60;93.80;;;;;;5114043;27;20976;-65
2021/08/05 08:05:01;;;;;;;15.07;13.63;;;23.60;93.80;;;;;;5114090;27;21028;-65
2021/08/05 08:07:28;;;;;;;6.50;6.00;;;23.60;93.50;;;;;;5113801;27;20472;-65
2021/08/05 08:09:55;;;;;;;6.30;4.97;;;23.60;93.40;;;;;;5114173;27;20460;-65
2021/08/05 08:12:22;;;;;;;8.53;6.47;;;23.50;93.50;;;;;;5113750;27;20502;-65
2021/08/05 08:14:49;;;;;;;12.33;10.03;;;23.50;93.50;;;;;;5114117;27;20463;-64
2021/08/05 08:17:18;;;;;;;12.77;6.93;;;23.50;93.60;;;;;;5113946;27;20474;-64
2021/08/05 08:19:45;;;;;;;6.20;4.60;;;23.60;93.70;;;;;;5113806;27;20972;-64
2021/08/05 08:22:11;;;;;;;5.17;4.67;;;23.60;93.70;;;;;;5114305;27;20950;-65
2021/08/05 08:24:38;;;;;;;8.63;6.17;;;23.60;93.70;;;;;;5112934;27;20471;-64
2021/08/05 08:27:05;;;;;;;7.37;6.53;;;23.60;93.70;;;;;;5113548;27;20471;-64
2021/08/05 08:29:32;;;;;;;7.10;5.27;;;23.60;93.30;;;;;;5113549;27;20810;-67
2021/08/05 08:31:59;;;;;;;6.23;5.63;;;23.60;93.30;;;;;;5113774;27;20465;-65
2021/08/05 08:34:28;;;;;;;3.83;3.53;;;23.70;93.30;;;;;;5113396;27;20461;-64
2021/08/05 08:36:55;;;;;;;9.30;4.40;;;23.70;93.40;;;;;;5113776;27;20958;-64
2021/08/05 08:39:23;;;;;;;5.43;4.57;;;23.80;93.20;;;;;;5113254;27;20468;-64
2021/08/05 08:41:50;;;;;;;5.23;4.67;;;23.80;93.30;;;;;;5113653;27;20794;-65
2021/08/05 08:44:17;;;;;;;5.23;4.80;;;23.80;93.30;;;;;;5113797;27;20852;-65
2021/08/05 08:46:44;;;;;;;4.30;4.00;;;23.80;93.20;;;;;;5113288;27;20467;-65
2021/08/05 08:49:11;;;;;;;6.60;4.10;;;23.90;93.60;;;;;;5113433;27;20464;-65
2021/08/05 08:51:40;;;;;;;7.40;4.20;;;23.90;92.70;;;;;;5113295;27;20783;-65
2021/08/05 08:54:09;;;;;;;5.80;4.47;;;23.90;92.70;;;;;;5113433;27;20465;-65
2021/08/05 08:56:38;;;;;;;4.23;3.77;;;23.90;92.20;;;;;;5112830;27;20834;-64
2021/08/05 08:59:06;;;;;;;3.70;3.40;;;23.90;92.20;;;;;;5113300;27;20469;-64
2021/08/05 09:01:39;;;;;;;4.53;4.13;;;23.90;92.10;;;;;;5113041;27;20468;-65
2021/08/05 09:04:06;;;;;;;4.33;4.00;;;24.00;92.20;;;;;;5113251;27;20460;-64
2021/08/05 09:06:33;;;;;;;4.73;3.87;;;24.00;91.80;;;;;;5113063;27;20487;-65
2021/08/05 09:09:02;;;;;;;7.83;4.80;;;24.10;91.90;;;;;;5113326;27;20792;-65
2021/08/05 09:11:29;;;;;;;5.53;4.00;;;24.20;92.00;;;;;;5112845;27;20468;-65
2021/08/05 09:13:55;;;;;;;4.50;3.70;;;24.20;91.90;;;;;;5113276;27;20460;-65
2021/08/05 09:16:25;;;;;;;3.43;3.23;;;24.20;91.90;;;;;;5113148;27;20484;-65
2021/08/05 09:18:52;;;;;;;3.93;3.43;;;24.30;91.70;;;;;;5112732;27;20449;-65
2021/08/05 09:21:22;;;;;;;5.10;4.70;;;24.30;91.50;;;;;;5113280;27;20461;-65
2021/08/05 09:23:52;;;;;;;4.40;3.20;;;24.30;91.40;;;;;;5112740;27;20455;-65
2021/08/05 09:26:36;;;;;;;6.63;3.70;;;24.30;91.40;;;;;;5113138;27;20456;-65
2021/08/05 09:29:06;;;;;;;3.30;3.10;;;24.30;91.20;;;;;;5113414;27;20472;-65
2021/08/05 09:31:35;;;;;;;7.77;3.23;;;24.40;91.20;;;;;;5112899;27;21208;-65
2021/08/05 09:34:05;;;;;;;5.60;4.43;;;24.40;91.20;;;;;;5113001;27;20464;-64
2021/08/05 09:36:32;;;;;;;5.90;3.97;;;24.40;91.10;;;;;;5113375;27;20461;-66
2021/08/05 09:39:00;;;;;;;3.80;3.50;;;24.50;90.90;;;;;;5117342;27;20788;-65
2021/08/05 09:41:27;;;;;;;3.63;3.40;;;24.40;90.90;;;;;;5116594;27;20472;-65
2021/08/05 09:44:03;;;;;;;4.93;4.10;;;24.40;91.00;;;;;;5117100;27;20491;-64
2021/08/05 09:46:31;;;;;;;3.40;3.10;;;24.50;90.70;;;;;;5116853;27;20521;-66
2021/08/05 09:48:58;;;;;;;4.07;3.77;;;24.50;90.40;;;;;;5116891;27;20989;-64
2021/08/05 09:51:26;;;;;;;4.27;3.87;;;24.40;90.10;;;;;;5116496;27;20460;-65
2021/08/05 09:54:01;;;;;;;4.23;3.93;;;24.50;90.30;;;;;;5116923;27;20477;-65
2021/08/05 09:56:29;;;;;;;6.47;4.90;;;24.50;90.10;;;;;;5116521;27;20813;-65
2021/08/05 09:59:14;;;;;;;6.00;3.90;;;24.60;90.20;;;;;;5116484;27;20989;-65
2021/08/05 10:01:58;;;;;;;5.27;3.67;;;24.60;90.20;;;;;;5116497;27;21709;-65
2021/08/05 10:04:27;;;;;;;3.30;3.10;;;24.60;90.20;;;;;;5116225;27;20464;-65
2021/08/05 10:07:03;;;;;;;3.10;2.90;;;24.60;89.70;;;;;;5116625;27;20483;-65
2021/08/05 10:09:30;;;;;;;4.57;4.00;;;24.60;87.60;;;;;;5116251;27;20460;-65
2021/08/05 10:12:19;;;;;;;3.53;3.30;;;24.60;87.50;;;;;;5116662;27;20460;-66
2021/08/05 10:14:49;;;;;;;3.93;3.43;;;24.60;87.60;;;;;;5116088;27;20452;-65
2021/08/05 10:17:17;;;;;;;3.63;3.33;;;24.60;88.30;;;;;;5116215;27;20475;-65
2021/08/05 10:19:46;;;;;;;3.30;2.77;;;24.60;88.40;;;;;;5116042;27;20464;-65
2021/08/05 10:22:16;;;;;;;5.13;4.63;;;24.70;88.50;;;;;;5116401;27;20460;-65
2021/08/05 10:24:45;;;;;;;5.20;3.27;;;24.70;87.90;;;;;;5115785;27;20995;-64
2021/08/05 10:27:14;;;;;;;3.77;3.43;;;24.70;86.50;;;;;;5116348;27;20665;-66
2021/08/05 10:29:42;;;;;;;3.40;3.10;;;24.70;86.70;;;;;;5115596;27;20475;-65
2021/08/05 10:32:12;;;;;;;3.97;3.67;;;24.80;87.00;;;;;;5116149;27;20464;-66
2021/08/05 10:34:40;;;;;;;3.20;3.00;;;24.80;87.10;;;;;;5115812;27;21021;-65
2021/08/05 10:37:11;;;;;;;6.57;3.47;;;24.80;86.70;;;;;;5115994;27;20464;-65
2021/08/05 10:39:38;;;;;;;3.23;3.03;;;24.80;85.90;;;;;;5115374;27;20511;-65
2021/08/05 10:42:08;;;;;;;4.33;2.67;;;24.90;85.60;;;;;;5116037;27;20814;-64
2021/08/05 10:44:37;;;;;;;3.40;2.90;;;24.90;85.00;;;;;;5115603;27;20958;-65
2021/08/05 10:47:06;;;;;;;3.70;3.37;;;24.90;84.40;;;;;;5115824;27;20469;-65
2021/08/05 10:49:36;;;;;;;5.50;2.93;;;25.00;84.30;;;;;;5113917;27;20473;-65
2021/08/05 10:52:04;;;;;;;2.90;2.70;;;25.00;84.50;;;;;;5115806;27;20974;-65
2021/08/05 10:54:52;;;;;;;3.63;3.30;;;25.10;84.40;;;;;;5115352;27;20461;-65
2021/08/05 10:57:21;;;;;;;3.50;3.20;;;25.10;84.00;;;;;;5115339;27;20468;-65
2021/08/05 11:00:08;;;;;;;3.80;2.93;;;25.20;84.10;;;;;;5115117;27;20787;-65
2021/08/05 11:02:46;;;;;;;3.40;3.10;;;25.20;83.60;;;;;;5114999;27;20518;-65
2021/08/05 11:05:42;;;;;;;5.03;3.30;;;25.20;83.40;;;;;;5115496;27;20464;-65
2021/08/05 11:08:28;;;;;;;3.00;2.80;;;25.30;83.30;;;;;;5115300;27;20456;-65
2021/08/05 11:11:30;;;;;;;3.07;2.87;;;25.20;83.40;;;;;;5115325;27;20453;-65
2021/08/05 11:14:35;;;;;;;2.93;2.73;;;25.30;82.60;;;;;;5114952;27;20460;-65
2021/08/05 11:17:03;;;;;;;3.07;2.67;;;25.20;81.90;;;;;;5114803;27;20529;-65
2021/08/05 11:19:31;;;;;;;3.50;3.20;;;25.30;81.80;;;;;;5115020;27;20468;-66
2021/08/05 11:22:52;;;;;;;3.17;2.80;;;25.30;81.70;;;;;;5114721;27;20468;-65
2021/08/05 11:25:21;;;;;;;2.90;2.70;;;25.40;80.90;;;;;;5114936;27;20457;-65
2021/08/05 11:28:19;;;;;;;2.87;2.60;;;25.40;80.70;;;;;;5114542;27;20468;-65
2021/08/05 11:30:49;;;;;;;8.10;2.80;;;25.40;81.10;;;;;;5112983;27;20460;-65
2021/08/05 11:33:51;;;;;;;2.90;2.67;;;25.40;81.00;;;;;;5114470;27;21027;-65
2021/08/05 11:36:21;;;;;;;3.13;2.90;;;25.50;80.50;;;;;;5101257;27;20465;-65
2021/08/05 11:39:01;;;;;;;2.80;2.60;;;25.50;80.40;;;;;;5095437;27;20472;-65
2021/08/05 11:41:48;;;;;;;2.30;2.20;;;25.50;79.20;;;;;;5093928;28;20461;-65
2021/08/05 11:44:25;;;;;;;2.73;2.53;;;25.50;78.10;;;;;;5106481;27;20461;-65
2021/08/05 11:47:27;;;;;;;3.37;3.00;;;25.50;78.50;;;;;;5107801;27;20468;-65
2021/08/05 11:49:57;;;;;;;4.00;3.13;;;25.50;79.00;;;;;;5113793;28;20555;-64
2021/08/05 11:52:31;;;;;;;10.40;3.67;;;25.40;78.30;;;;;;5114076;27;20471;-65
2021/08/05 11:55:00;;;;;;;2.13;2.03;;;25.40;78.20;;;;;;5113811;27;20471;-64
2021/08/05 11:57:29;;;;;;;2.80;2.60;;;25.30;77.70;;;;;;5114052;27;20546;-65
2021/08/05 11:59:57;;;;;;;3.00;2.73;;;25.30;77.10;;;;;;5113013;27;20475;-65
2021/08/05 12:02:25;;;;;;;3.53;2.73;;;25.40;77.60;;;;;;5114360;27;20859;-64
2021/08/05 12:04:56;;;;;;;2.90;2.70;;;25.40;77.30;;;;;;5113415;27;20465;-65
2021/08/05 12:07:29;;;;;;;5.10;2.60;;;25.40;77.80;;;;;;5113906;27;20465;-64
2021/08/05 12:10:03;;;;;;;3.47;3.10;;;25.50;77.30;;;;;;5112389;27;20465;-65
2021/08/05 12:12:36;;;;;;;3.07;2.80;;;25.50;77.70;;;;;;5112876;27;20470;-66
2021/08/05 12:15:02;;;;;;;2.80;2.50;;;25.60;78.80;;;;;;5112058;27;20453;-66
2021/08/05 12:17:38;;;;;;;2.50;2.40;;;25.60;79.00;;;;;;5112330;27;20461;-66
2021/08/05 12:20:10;;;;;;;3.10;2.80;;;25.60;78.90;;;;;;5112521;27;20448;-65
2021/08/05 12:22:39;;;;;;;3.43;3.23;;;25.60;79.30;;;;;;5112517;27;20472;-65
2021/08/05 12:25:23;;;;;;;4.17;2.70;;;25.60;78.90;;;;;;5113082;27;20456;-65
2021/08/05 12:28:04;;;;;;;3.70;2.70;;;25.50;78.80;;;;;;5113438;27;20480;-64
2021/08/05 12:30:37;;;;;;;2.57;2.37;;;25.50;78.80;;;;;;5113595;27;20496;-65
2021/08/05 12:33:06;;;;;;;4.73;3.40;;;25.60;77.80;;;;;;5113472;27;20464;-65
2021/08/05 12:35:33;;;;;;;2.70;2.50;;;25.50;78.00;;;;;;5110925;27;20491;-65
2021/08/05 12:38:03;;;;;;;2.60;2.40;;;25.50;78.40;;;;;;5112828;27;20476;-65
2021/08/05 12:40:32;;;;;;;3.27;2.80;;;25.50;78.00;;;;;;5113612;27;20464;-65
2021/08/05 12:43:03;;;;;;;2.90;2.70;;;25.50;77.90;;;;;;5113330;27;20465;-65
2021/08/05 12:45:34;;;;;;;4.30;2.47;;;25.60;78.30;;;;;;5113527;27;20475;-65
2021/08/05 12:48:02;;;;;;;4.33;2.73;;;25.60;77.90;;;;;;5112914;27;20506;-65
2021/08/05 12:50:29;;;;;;;2.70;2.30;;;25.60;77.30;;;;;;5113469;27;20460;-65
2021/08/05 12:52:56;;;;;;;4.40;2.87;;;25.50;76.90;;;;;;5113020;27;20802;-65
2021/08/05 12:55:23;;;;;;;4.57;2.93;;;25.50;77.40;;;;;;5113695;27;20491;-65
2021/08/05 12:57:53;;;;;;;5.03;3.53;;;25.40;77.90;;;;;;5113006;27;21005;-66